sensor_id;sensor_type;location;lat;lon;timestamp;temperature;humidity
24207;DHT22;12351;52.284;9.160;2022-07-17T00:02:32;11.30;99.90
24207;DHT22;12351;52.284;9.160;2022-07-17T00:05:08;11.50;99.90
24207;DHT22;12351;52.284;9.160;2022-07-17T00:07:44;11.60;99.90
24207;DHT22;12351;52.284;9.160;2022-07-17T00:10:19;11.70;99.90
24207;DHT22;12351;52.284;9.160;2022-07-17T00:12:55;11.70;99.90
24207;DHT22;12351;52.284;9.160;2022-07-17T00:15:31;12.00;99.90
24207;DHT22;12351;52.284;9.160;2022-07-17T00:18:05;12.40;99.90
24207;DHT22;12351;52.284;9.160;2022-07-17T00:20:39;12.50;99.90
24207;DHT22;12351;52.284;9.160;2022-07-17T00:23:14;11.70;99.90
24207;DHT22;12351;52.284;9.160;2022-07-17T00:25:49;11.30;99.90
24207;DHT22;12351;52.284;9.160;2022-07-17T00:28:24;10.80;99.90
24207;DHT22;12351;52.284;9.160;2022-07-17T00:30:59;10.40;99.90
24207;DHT22;12351;52.284;9.160;2022-07-17T00:33:33;10.20;99.90
24207;DHT22;12351;52.284;9.160;2022-07-17T00:36:05;10.10;99.90
24207;DHT22;12351;52.284;9.160;2022-07-17T00:38:37;9.90;99.90
24207;DHT22;12351;52.284;9.160;2022-07-17T00:41:13;9.80;99.90
24207;DHT22;12351;52.284;9.160;2022-07-17T00:43:44;9.80;99.90
24207;DHT22;12351;52.284;9.160;2022-07-17T00:46:20;9.40;99.90
24207;DHT22;12351;52.284;9.160;2022-07-17T00:48:53;9.30;99.90
24207;DHT22;12351;52.284;9.160;2022-07-17T00:51:27;9.50;99.90
24207;DHT22;12351;52.284;9.160;2022-07-17T00:54:00;9.70;99.90
24207;DHT22;12351;52.284;9.160;2022-07-17T00:56:36;10.10;99.90
24207;DHT22;12351;52.284;9.160;2022-07-17T00:59:11;10.30;99.90
24207;DHT22;12351;52.284;9.160;2022-07-17T01:01:44;10.50;99.90
24207;DHT22;12351;52.284;9.160;2022-07-17T01:04:20;10.60;99.90
24207;DHT22;12351;52.284;9.160;2022-07-17T01:06:53;10.60;99.90
24207;DHT22;12351;52.284;9.160;2022-07-17T01:09:31;11.20;99.90
24207;DHT22;12351;52.284;9.160;2022-07-17T01:12:06;11.90;99.90
24207;DHT22;12351;52.284;9.160;2022-07-17T01:14:41;11.00;99.90
24207;DHT22;12351;52.284;9.160;2022-07-17T01:17:15;10.30;99.90
24207;DHT22;12351;52.284;9.160;2022-07-17T01:19:51;10.00;99.90
24207;DHT22;12351;52.284;9.160;2022-07-17T01:22:25;9.60;99.90
24207;DHT22;12351;52.284;9.160;2022-07-17T01:24:55;9.60;99.90
24207;DHT22;12351;52.284;9.160;2022-07-17T01:27:29;9.30;99.90
24207;DHT22;12351;52.284;9.160;2022-07-17T01:30:02;9.30;99.90
24207;DHT22;12351;52.284;9.160;2022-07-17T01:32:37;9.20;99.90
24207;DHT22;12351;52.284;9.160;2022-07-17T01:35:13;9.10;99.90
24207;DHT22;12351;52.284;9.160;2022-07-17T01:37:45;8.80;99.90
24207;DHT22;12351;52.284;9.160;2022-07-17T01:40:19;9.20;99.90
24207;DHT22;12351;52.284;9.160;2022-07-17T01:42:57;9.20;99.90
24207;DHT22;12351;52.284;9.160;2022-07-17T01:45:32;9.50;99.90
24207;DHT22;12351;52.284;9.160;2022-07-17T01:48:05;9.70;99.90
24207;DHT22;12351;52.284;9.160;2022-07-17T01:50:38;10.00;99.90
24207;DHT22;12351;52.284;9.160;2022-07-17T01:53:13;10.00;99.90
24207;DHT22;12351;52.284;9.160;2022-07-17T01:55:48;10.10;99.90
24207;DHT22;12351;52.284;9.160;2022-07-17T01:58:23;10.20;99.90
24207;DHT22;12351;52.284;9.160;2022-07-17T02:00:56;11.00;99.90
24207;DHT22;12351;52.284;9.160;2022-07-17T02:03:27;11.50;99.90
24207;DHT22;12351;52.284;9.160;2022-07-17T02:05:56;10.50;99.90
24207;DHT22;12351;52.284;9.160;2022-07-17T02:08:25;10.00;99.90
24207;DHT22;12351;52.284;9.160;2022-07-17T02:10:55;9.80;99.90
24207;DHT22;12351;52.284;9.160;2022-07-17T02:13:24;9.20;99.90
24207;DHT22;12351;52.284;9.160;2022-07-17T02:15:53;8.90;99.90
24207;DHT22;12351;52.284;9.160;2022-07-17T02:18:22;8.80;99.90
24207;DHT22;12351;52.284;9.160;2022-07-17T02:20:52;9.20;99.90
24207;DHT22;12351;52.284;9.160;2022-07-17T02:23:21;8.70;99.90
24207;DHT22;12351;52.284;9.160;2022-07-17T02:25:50;8.30;99.90
24207;DHT22;12351;52.284;9.160;2022-07-17T02:28:19;8.40;99.90
24207;DHT22;12351;52.284;9.160;2022-07-17T02:30:49;8.40;99.90
24207;DHT22;12351;52.284;9.160;2022-07-17T02:33:18;8.30;99.90
24207;DHT22;12351;52.284;9.160;2022-07-17T02:35:48;8.70;99.90
24207;DHT22;12351;52.284;9.160;2022-07-17T02:38:17;9.10;99.90
24207;DHT22;12351;52.284;9.160;2022-07-17T02:40:46;9.30;99.90
24207;DHT22;12351;52.284;9.160;2022-07-17T02:43:15;9.40;99.90
24207;DHT22;12351;52.284;9.160;2022-07-17T02:45:45;9.60;99.90
24207;DHT22;12351;52.284;9.160;2022-07-17T02:48:14;9.80;99.90
24207;DHT22;12351;52.284;9.160;2022-07-17T02:50:43;9.90;99.90
24207;DHT22;12351;52.284;9.160;2022-07-17T02:53:12;10.50;99.90
24207;DHT22;12351;52.284;9.160;2022-07-17T02:55:42;10.90;99.90
24207;DHT22;12351;52.284;9.160;2022-07-17T02:58:11;10.60;99.90
24207;DHT22;12351;52.284;9.160;2022-07-17T03:00:40;9.80;99.90
24207;DHT22;12351;52.284;9.160;2022-07-17T03:03:09;9.30;99.90
24207;DHT22;12351;52.284;9.160;2022-07-17T03:05:39;9.00;99.90
24207;DHT22;12351;52.284;9.160;2022-07-17T03:08:08;9.00;99.90
24207;DHT22;12351;52.284;9.160;2022-07-17T03:10:37;9.00;99.90
24207;DHT22;12351;52.284;9.160;2022-07-17T03:13:06;9.00;99.90
24207;DHT22;12351;52.284;9.160;2022-07-17T03:15:36;8.50;99.90
24207;DHT22;12351;52.284;9.160;2022-07-17T03:18:05;8.70;99.90
24207;DHT22;12351;52.284;9.160;2022-07-17T03:20:34;9.10;99.90
24207;DHT22;12351;52.284;9.160;2022-07-17T03:23:03;9.40;99.90
24207;DHT22;12351;52.284;9.160;2022-07-17T03:25:32;9.50;99.90
24207;DHT22;12351;52.284;9.160;2022-07-17T03:28:02;9.60;99.90
24207;DHT22;12351;52.284;9.160;2022-07-17T03:30:31;9.80;99.90
24207;DHT22;12351;52.284;9.160;2022-07-17T03:33:00;9.80;99.90
24207;DHT22;12351;52.284;9.160;2022-07-17T03:35:29;9.90;99.90
24207;DHT22;12351;52.284;9.160;2022-07-17T03:37:59;9.90;99.90
24207;DHT22;12351;52.284;9.160;2022-07-17T03:40:28;9.90;99.90
24207;DHT22;12351;52.284;9.160;2022-07-17T03:43:00;10.00;99.90
24207;DHT22;12351;52.284;9.160;2022-07-17T03:45:32;10.10;99.90
24207;DHT22;12351;52.284;9.160;2022-07-17T03:48:05;10.80;99.90
24207;DHT22;12351;52.284;9.160;2022-07-17T03:50:34;11.80;99.90
24207;DHT22;12351;52.284;9.160;2022-07-17T03:53:06;11.40;99.90
24207;DHT22;12351;52.284;9.160;2022-07-17T03:55:37;11.40;99.90
24207;DHT22;12351;52.284;9.160;2022-07-17T03:58:07;11.70;99.90
24207;DHT22;12351;52.284;9.160;2022-07-17T04:00:37;11.80;99.90
24207;DHT22;12351;52.284;9.160;2022-07-17T04:03:09;11.70;99.90
24207;DHT22;12351;52.284;9.160;2022-07-17T04:05:43;11.60;99.90
24207;DHT22;12351;52.284;9.160;2022-07-17T04:08:12;11.50;99.90
24207;DHT22;12351;52.284;9.160;2022-07-17T04:10:46;11.30;99.90
24207;DHT22;12351;52.284;9.160;2022-07-17T04:13:20;11.20;99.90
24207;DHT22;12351;52.284;9.160;2022-07-17T04:15:50;10.80;99.90
24207;DHT22;12351;52.284;9.160;2022-07-17T04:18:25;10.30;99.90
24207;DHT22;12351;52.284;9.160;2022-07-17T04:20:58;9.90;99.90
24207;DHT22;12351;52.284;9.160;2022-07-17T04:23:31;9.70;99.90
24207;DHT22;12351;52.284;9.160;2022-07-17T04:26:06;9.70;99.90
24207;DHT22;12351;52.284;9.160;2022-07-17T04:28:38;9.80;99.90
24207;DHT22;12351;52.284;9.160;2022-07-17T04:31:09;9.70;99.90
24207;DHT22;12351;52.284;9.160;2022-07-17T04:33:44;10.00;99.90
24207;DHT22;12351;52.284;9.160;2022-07-17T04:36:15;10.00;99.90
24207;DHT22;12351;52.284;9.160;2022-07-17T04:38:49;10.10;99.90
24207;DHT22;12351;52.284;9.160;2022-07-17T04:41:21;10.20;99.90
24207;DHT22;12351;52.284;9.160;2022-07-17T04:43:52;10.30;99.90
24207;DHT22;12351;52.284;9.160;2022-07-17T04:46:22;10.50;99.90
24207;DHT22;12351;52.284;9.160;2022-07-17T04:48:54;10.90;99.90
24207;DHT22;12351;52.284;9.160;2022-07-17T04:51:24;11.50;99.90
24207;DHT22;12351;52.284;9.160;2022-07-17T04:53:55;11.40;99.90
24207;DHT22;12351;52.284;9.160;2022-07-17T04:56:28;10.60;99.90
24207;DHT22;12351;52.284;9.160;2022-07-17T04:59:01;10.00;99.90
24207;DHT22;12351;52.284;9.160;2022-07-17T05:01:32;9.60;99.90
24207;DHT22;12351;52.284;9.160;2022-07-17T05:04:05;9.40;99.90
24207;DHT22;12351;52.284;9.160;2022-07-17T05:06:36;9.50;99.90
24207;DHT22;12351;52.284;9.160;2022-07-17T05:09:07;9.80;99.90
24207;DHT22;12351;52.284;9.160;2022-07-17T05:11:37;10.00;99.90
24207;DHT22;12351;52.284;9.160;2022-07-17T05:14:12;10.10;99.90
24207;DHT22;12351;52.284;9.160;2022-07-17T05:16:45;10.20;99.90
24207;DHT22;12351;52.284;9.160;2022-07-17T05:19:20;10.60;99.90
24207;DHT22;12351;52.284;9.160;2022-07-17T05:21:52;10.80;99.90
24207;DHT22;12351;52.284;9.160;2022-07-17T05:24:28;10.90;99.90
24207;DHT22;12351;52.284;9.160;2022-07-17T05:27:01;11.00;99.90
24207;DHT22;12351;52.284;9.160;2022-07-17T05:29:33;11.00;99.90
24207;DHT22;12351;52.284;9.160;2022-07-17T05:32:06;11.30;99.90
24207;DHT22;12351;52.284;9.160;2022-07-17T05:34:38;11.20;99.90
24207;DHT22;12351;52.284;9.160;2022-07-17T05:37:10;11.30;99.90
24207;DHT22;12351;52.284;9.160;2022-07-17T05:39:47;11.50;99.90
24207;DHT22;12351;52.284;9.160;2022-07-17T05:42:19;11.60;99.90
24207;DHT22;12351;52.284;9.160;2022-07-17T05:44:54;12.00;99.90
24207;DHT22;12351;52.284;9.160;2022-07-17T05:47:30;12.20;99.90
24207;DHT22;12351;52.284;9.160;2022-07-17T05:50:01;12.40;99.90
24207;DHT22;12351;52.284;9.160;2022-07-17T05:52:34;12.50;99.90
24207;DHT22;12351;52.284;9.160;2022-07-17T05:55:11;12.60;99.90
24207;DHT22;12351;52.284;9.160;2022-07-17T05:57:46;12.70;99.90
24207;DHT22;12351;52.284;9.160;2022-07-17T06:00:24;12.80;99.90
24207;DHT22;12351;52.284;9.160;2022-07-17T06:02:59;13.00;99.90
24207;DHT22;12351;52.284;9.160;2022-07-17T06:05:36;13.10;99.90
24207;DHT22;12351;52.284;9.160;2022-07-17T06:08:08;13.20;99.90
24207;DHT22;12351;52.284;9.160;2022-07-17T06:10:45;13.30;99.90
24207;DHT22;12351;52.284;9.160;2022-07-17T06:13:17;13.40;99.90
24207;DHT22;12351;52.284;9.160;2022-07-17T06:15:52;13.50;99.90
24207;DHT22;12351;52.284;9.160;2022-07-17T06:18:28;13.50;99.90
24207;DHT22;12351;52.284;9.160;2022-07-17T06:21:03;14.30;99.90
24207;DHT22;12351;52.284;9.160;2022-07-17T06:23:35;14.70;99.90
24207;DHT22;12351;52.284;9.160;2022-07-17T06:26:08;14.80;99.90
24207;DHT22;12351;52.284;9.160;2022-07-17T06:28:43;13.90;99.90
24207;DHT22;12351;52.284;9.160;2022-07-17T06:31:18;13.60;99.90
24207;DHT22;12351;52.284;9.160;2022-07-17T06:33:54;13.40;99.90
24207;DHT22;12351;52.284;9.160;2022-07-17T06:36:31;13.40;99.90
24207;DHT22;12351;52.284;9.160;2022-07-17T06:39:06;13.60;99.90
24207;DHT22;12351;52.284;9.160;2022-07-17T06:41:40;13.50;99.90
24207;DHT22;12351;52.284;9.160;2022-07-17T06:44:14;13.40;99.90
24207;DHT22;12351;52.284;9.160;2022-07-17T06:46:51;13.50;99.90
24207;DHT22;12351;52.284;9.160;2022-07-17T06:49:26;13.60;99.90
24207;DHT22;12351;52.284;9.160;2022-07-17T06:51:59;13.40;99.90
24207;DHT22;12351;52.284;9.160;2022-07-17T06:54:36;13.70;99.90
24207;DHT22;12351;52.284;9.160;2022-07-17T06:57:10;13.80;99.90
24207;DHT22;12351;52.284;9.160;2022-07-17T06:59:47;13.70;99.90
24207;DHT22;12351;52.284;9.160;2022-07-17T07:02:21;13.70;99.90
24207;DHT22;12351;52.284;9.160;2022-07-17T07:04:57;13.70;99.90
24207;DHT22;12351;52.284;9.160;2022-07-17T07:07:32;13.80;99.90
24207;DHT22;12351;52.284;9.160;2022-07-17T07:10:06;13.80;99.90
24207;DHT22;12351;52.284;9.160;2022-07-17T07:12:41;13.90;99.90
24207;DHT22;12351;52.284;9.160;2022-07-17T07:15:15;14.10;99.90
24207;DHT22;12351;52.284;9.160;2022-07-17T07:17:49;14.20;99.90
24207;DHT22;12351;52.284;9.160;2022-07-17T07:20:23;14.10;99.90
24207;DHT22;12351;52.284;9.160;2022-07-17T07:22:54;14.20;99.90
24207;DHT22;12351;52.284;9.160;2022-07-17T07:25:28;14.30;99.90
24207;DHT22;12351;52.284;9.160;2022-07-17T07:28:02;14.30;99.90
24207;DHT22;12351;52.284;9.160;2022-07-17T07:30:37;14.50;99.90
24207;DHT22;12351;52.284;9.160;2022-07-17T07:33:13;14.60;99.90
24207;DHT22;12351;52.284;9.160;2022-07-17T07:35:47;14.70;99.90
24207;DHT22;12351;52.284;9.160;2022-07-17T07:38:23;14.90;99.90
24207;DHT22;12351;52.284;9.160;2022-07-17T07:40:59;14.70;99.90
24207;DHT22;12351;52.284;9.160;2022-07-17T07:43:35;14.70;99.90
24207;DHT22;12351;52.284;9.160;2022-07-17T07:46:11;14.90;99.90
24207;DHT22;12351;52.284;9.160;2022-07-17T07:48:46;14.90;99.90
24207;DHT22;12351;52.284;9.160;2022-07-17T07:51:21;15.10;99.90
24207;DHT22;12351;52.284;9.160;2022-07-17T07:53:54;15.00;99.90
24207;DHT22;12351;52.284;9.160;2022-07-17T07:56:28;15.00;99.90
24207;DHT22;12351;52.284;9.160;2022-07-17T07:59:04;15.10;99.90
24207;DHT22;12351;52.284;9.160;2022-07-17T08:01:40;15.20;99.90
24207;DHT22;12351;52.284;9.160;2022-07-17T08:04:13;15.20;99.90
24207;DHT22;12351;52.284;9.160;2022-07-17T08:06:43;15.40;99.90
24207;DHT22;12351;52.284;9.160;2022-07-17T08:09:22;15.50;99.90
24207;DHT22;12351;52.284;9.160;2022-07-17T08:11:55;15.60;99.90
24207;DHT22;12351;52.284;9.160;2022-07-17T08:14:32;15.50;99.90
24207;DHT22;12351;52.284;9.160;2022-07-17T08:17:08;15.70;99.90
24207;DHT22;12351;52.284;9.160;2022-07-17T08:19:39;15.50;99.90
24207;DHT22;12351;52.284;9.160;2022-07-17T08:22:11;15.60;99.90
24207;DHT22;12351;52.284;9.160;2022-07-17T08:24:45;15.60;99.90
24207;DHT22;12351;52.284;9.160;2022-07-17T08:27:18;15.40;99.90
24207;DHT22;12351;52.284;9.160;2022-07-17T08:29:51;15.60;99.90
24207;DHT22;12351;52.284;9.160;2022-07-17T08:32:26;15.80;99.90
24207;DHT22;12351;52.284;9.160;2022-07-17T08:34:59;15.90;99.90
24207;DHT22;12351;52.284;9.160;2022-07-17T08:37:41;16.10;99.90
24207;DHT22;12351;52.284;9.160;2022-07-17T08:40:06;16.10;99.90
24207;DHT22;12351;52.284;9.160;2022-07-17T08:42:39;16.30;99.90
24207;DHT22;12351;52.284;9.160;2022-07-17T08:45:12;16.60;99.90
24207;DHT22;12351;52.284;9.160;2022-07-17T08:47:50;16.50;99.90
24207;DHT22;12351;52.284;9.160;2022-07-17T08:50:28;16.60;99.90
24207;DHT22;12351;52.284;9.160;2022-07-17T08:53:01;16.60;99.90
24207;DHT22;12351;52.284;9.160;2022-07-17T08:55:34;16.70;99.90
24207;DHT22;12351;52.284;9.160;2022-07-17T08:58:07;16.70;99.90
24207;DHT22;12351;52.284;9.160;2022-07-17T09:00:40;16.90;99.90
24207;DHT22;12351;52.284;9.160;2022-07-17T09:03:15;16.90;99.90
24207;DHT22;12351;52.284;9.160;2022-07-17T09:05:48;17.10;99.90
24207;DHT22;12351;52.284;9.160;2022-07-17T09:08:22;17.20;99.90
24207;DHT22;12351;52.284;9.160;2022-07-17T09:10:58;17.40;99.90
24207;DHT22;12351;52.284;9.160;2022-07-17T09:13:31;17.70;99.90
24207;DHT22;12351;52.284;9.160;2022-07-17T09:18:43;18.20;99.90
24207;DHT22;12351;52.284;9.160;2022-07-17T09:26:25;19.50;99.90
24207;DHT22;12351;52.284;9.160;2022-07-17T09:28:57;19.70;99.90
24207;DHT22;12351;52.284;9.160;2022-07-17T09:31:30;19.60;99.90
24207;DHT22;12351;52.284;9.160;2022-07-17T09:34:04;19.70;99.90
24207;DHT22;12351;52.284;9.160;2022-07-17T09:36:39;20.00;99.90
24207;DHT22;12351;52.284;9.160;2022-07-17T09:39:12;20.00;99.90
24207;DHT22;12351;52.284;9.160;2022-07-17T09:41:49;19.70;99.90
24207;DHT22;12351;52.284;9.160;2022-07-17T09:44:24;20.30;99.90
24207;DHT22;12351;52.284;9.160;2022-07-17T09:47:00;20.40;99.90
24207;DHT22;12351;52.284;9.160;2022-07-17T09:49:34;20.50;99.90
24207;DHT22;12351;52.284;9.160;2022-07-17T09:52:08;20.60;99.90
24207;DHT22;12351;52.284;9.160;2022-07-17T09:54:42;20.80;99.90
24207;DHT22;12351;52.284;9.160;2022-07-17T09:57:15;21.10;99.90
24207;DHT22;12351;52.284;9.160;2022-07-17T09:59:48;21.20;99.90
24207;DHT22;12351;52.284;9.160;2022-07-17T10:02:20;21.10;99.90
24207;DHT22;12351;52.284;9.160;2022-07-17T10:04:55;21.00;99.90
24207;DHT22;12351;52.284;9.160;2022-07-17T10:07:31;21.20;99.90
24207;DHT22;12351;52.284;9.160;2022-07-17T10:10:04;21.30;99.90
24207;DHT22;12351;52.284;9.160;2022-07-17T10:12:40;21.60;99.90
24207;DHT22;12351;52.284;9.160;2022-07-17T10:15:13;21.70;99.90
24207;DHT22;12351;52.284;9.160;2022-07-17T10:17:44;21.70;99.90
24207;DHT22;12351;52.284;9.160;2022-07-17T10:22:52;21.80;99.90
24207;DHT22;12351;52.284;9.160;2022-07-17T10:25:29;21.60;99.90
24207;DHT22;12351;52.284;9.160;2022-07-17T10:28:05;21.20;99.90
24207;DHT22;12351;52.284;9.160;2022-07-17T10:30:42;21.10;99.90
24207;DHT22;12351;52.284;9.160;2022-07-17T10:33:15;21.40;99.90
24207;DHT22;12351;52.284;9.160;2022-07-17T10:35:47;21.80;99.90
24207;DHT22;12351;52.284;9.160;2022-07-17T10:38:24;20.80;99.90
24207;DHT22;12351;52.284;9.160;2022-07-17T10:40:59;21.50;99.90
24207;DHT22;12351;52.284;9.160;2022-07-17T10:46:02;21.10;99.90
24207;DHT22;12351;52.284;9.160;2022-07-17T10:48:34;21.20;99.90
24207;DHT22;12351;52.284;9.160;2022-07-17T10:51:11;21.40;99.90
24207;DHT22;12351;52.284;9.160;2022-07-17T10:53:41;22.10;99.90
24207;DHT22;12351;52.284;9.160;2022-07-17T10:56:12;22.50;99.90
24207;DHT22;12351;52.284;9.160;2022-07-17T10:58:50;22.70;99.90
24207;DHT22;12351;52.284;9.160;2022-07-17T11:01:23;22.90;99.90
24207;DHT22;12351;52.284;9.160;2022-07-17T11:03:57;23.10;99.90
24207;DHT22;12351;52.284;9.160;2022-07-17T11:06:33;22.90;99.90
24207;DHT22;12351;52.284;9.160;2022-07-17T11:09:08;23.00;99.90
24207;DHT22;12351;52.284;9.160;2022-07-17T11:14:19;22.90;99.90
24207;DHT22;12351;52.284;9.160;2022-07-17T11:16:53;23.00;99.90
24207;DHT22;12351;52.284;9.160;2022-07-17T11:19:27;23.20;99.90
24207;DHT22;12351;52.284;9.160;2022-07-17T11:22:03;23.30;99.90
24207;DHT22;12351;52.284;9.160;2022-07-17T11:27:18;23.10;99.90
24207;DHT22;12351;52.284;9.160;2022-07-17T11:29:47;23.60;99.90
24207;DHT22;12351;52.284;9.160;2022-07-17T11:32:21;23.20;99.90
24207;DHT22;12351;52.284;9.160;2022-07-17T11:34:58;23.30;99.90
24207;DHT22;12351;52.284;9.160;2022-07-17T11:37:33;23.60;99.90
24207;DHT22;12351;52.284;9.160;2022-07-17T11:40:05;23.70;99.90
24207;DHT22;12351;52.284;9.160;2022-07-17T11:42:41;23.90;99.90
24207;DHT22;12351;52.284;9.160;2022-07-17T11:45:17;24.10;99.90
24207;DHT22;12351;52.284;9.160;2022-07-17T11:47:49;24.10;99.90
24207;DHT22;12351;52.284;9.160;2022-07-17T11:50:24;24.10;99.90
24207;DHT22;12351;52.284;9.160;2022-07-17T11:55:35;24.50;99.20
24207;DHT22;12351;52.284;9.160;2022-07-17T11:58:09;24.70;97.80
24207;DHT22;12351;52.284;9.160;2022-07-17T12:00:42;24.90;99.90
24207;DHT22;12351;52.284;9.160;2022-07-17T12:03:24;24.80;98.20
24207;DHT22;12351;52.284;9.160;2022-07-17T12:05:48;24.00;96.70
24207;DHT22;12351;52.284;9.160;2022-07-17T12:08:22;24.70;99.90
24207;DHT22;12351;52.284;9.160;2022-07-17T12:10:59;24.90;99.00
24207;DHT22;12351;52.284;9.160;2022-07-17T12:18:42;24.20;95.20
24207;DHT22;12351;52.284;9.160;2022-07-17T12:21:17;24.60;95.80
24207;DHT22;12351;52.284;9.160;2022-07-17T12:26:26;25.50;93.60
24207;DHT22;12351;52.284;9.160;2022-07-17T12:29:02;25.70;91.90
24207;DHT22;12351;52.284;9.160;2022-07-17T12:31:35;25.80;92.80
24207;DHT22;12351;52.284;9.160;2022-07-17T12:34:11;25.80;87.10
24207;DHT22;12351;52.284;9.160;2022-07-17T12:36:42;25.50;87.30
24207;DHT22;12351;52.284;9.160;2022-07-17T12:39:15;25.70;79.10
24207;DHT22;12351;52.284;9.160;2022-07-17T12:41:49;25.90;80.20
24207;DHT22;12351;52.284;9.160;2022-07-17T12:44:24;26.10;77.60
24207;DHT22;12351;52.284;9.160;2022-07-17T12:46:59;26.10;77.20
24207;DHT22;12351;52.284;9.160;2022-07-17T12:49:33;25.80;69.20
24207;DHT22;12351;52.284;9.160;2022-07-17T12:52:07;25.60;73.40
24207;DHT22;12351;52.284;9.160;2022-07-17T12:54:44;25.80;64.30
24207;DHT22;12351;52.284;9.160;2022-07-17T12:57:18;26.30;64.30
24207;DHT22;12351;52.284;9.160;2022-07-17T12:59:55;26.20;57.60
24207;DHT22;12351;52.284;9.160;2022-07-17T13:02:27;25.60;57.90
24207;DHT22;12351;52.284;9.160;2022-07-17T13:04:59;26.30;61.10
24207;DHT22;12351;52.284;9.160;2022-07-17T13:07:33;26.60;63.20
24207;DHT22;12351;52.284;9.160;2022-07-17T13:10:07;26.70;62.00
24207;DHT22;12351;52.284;9.160;2022-07-17T13:12:42;26.00;62.10
24207;DHT22;12351;52.284;9.160;2022-07-17T13:15:15;26.10;59.90
24207;DHT22;12351;52.284;9.160;2022-07-17T13:17:50;26.30;64.90
24207;DHT22;12351;52.284;9.160;2022-07-17T13:20:24;26.70;59.60
24207;DHT22;12351;52.284;9.160;2022-07-17T13:22:57;27.00;61.10
24207;DHT22;12351;52.284;9.160;2022-07-17T13:25:31;27.30;61.40
24207;DHT22;12351;52.284;9.160;2022-07-17T13:28:07;27.50;58.50
24207;DHT22;12351;52.284;9.160;2022-07-17T13:30:39;27.40;57.40
24207;DHT22;12351;52.284;9.160;2022-07-17T13:33:15;27.60;60.30
24207;DHT22;12351;52.284;9.160;2022-07-17T13:35:50;27.50;55.90
24207;DHT22;12351;52.284;9.160;2022-07-17T13:38:24;27.60;56.80
24207;DHT22;12351;52.284;9.160;2022-07-17T13:40:57;27.50;55.30
24207;DHT22;12351;52.284;9.160;2022-07-17T13:43:29;27.70;57.40
24207;DHT22;12351;52.284;9.160;2022-07-17T13:46:03;27.50;55.50
24207;DHT22;12351;52.284;9.160;2022-07-17T13:48:36;28.00;57.60
24207;DHT22;12351;52.284;9.160;2022-07-17T13:51:11;28.00;58.30
24207;DHT22;12351;52.284;9.160;2022-07-17T13:53:44;28.10;58.00
24207;DHT22;12351;52.284;9.160;2022-07-17T13:56:18;28.20;57.00
24207;DHT22;12351;52.284;9.160;2022-07-17T13:58:51;28.20;57.20
24207;DHT22;12351;52.284;9.160;2022-07-17T14:01:27;28.10;53.90
24207;DHT22;12351;52.284;9.160;2022-07-17T14:04:01;28.20;53.50
24207;DHT22;12351;52.284;9.160;2022-07-17T14:06:32;28.40;54.60
24207;DHT22;12351;52.284;9.160;2022-07-17T14:09:06;28.50;52.80
24207;DHT22;12351;52.284;9.160;2022-07-17T14:11:40;28.80;54.40
24207;DHT22;12351;52.284;9.160;2022-07-17T14:14:13;28.70;52.20
24207;DHT22;12351;52.284;9.160;2022-07-17T14:16:49;28.90;53.70
24207;DHT22;12351;52.284;9.160;2022-07-17T14:19:18;29.00;51.50
24207;DHT22;12351;52.284;9.160;2022-07-17T14:21:53;29.00;50.80
24207;DHT22;12351;52.284;9.160;2022-07-17T14:24:26;28.90;51.20
24207;DHT22;12351;52.284;9.160;2022-07-17T14:27:01;28.80;50.10
24207;DHT22;12351;52.284;9.160;2022-07-17T14:29:31;28.60;48.00
24207;DHT22;12351;52.284;9.160;2022-07-17T14:32:03;28.60;50.10
24207;DHT22;12351;52.284;9.160;2022-07-17T14:34:37;28.50;48.60
24207;DHT22;12351;52.284;9.160;2022-07-17T14:37:09;28.80;48.00
24207;DHT22;12351;52.284;9.160;2022-07-17T14:39:45;28.90;49.70
24207;DHT22;12351;52.284;9.160;2022-07-17T14:42:21;28.80;49.90
24207;DHT22;12351;52.284;9.160;2022-07-17T14:44:54;29.00;49.30
24207;DHT22;12351;52.284;9.160;2022-07-17T14:47:29;29.20;46.80
24207;DHT22;12351;52.284;9.160;2022-07-17T14:50:05;29.20;47.90
24207;DHT22;12351;52.284;9.160;2022-07-17T14:52:38;29.10;48.20
24207;DHT22;12351;52.284;9.160;2022-07-17T14:55:13;28.90;48.00
24207;DHT22;12351;52.284;9.160;2022-07-17T14:57:45;29.00;46.50
24207;DHT22;12351;52.284;9.160;2022-07-17T15:00:20;28.80;46.80
24207;DHT22;12351;52.284;9.160;2022-07-17T15:02:56;28.70;46.00
24207;DHT22;12351;52.284;9.160;2022-07-17T15:05:28;28.60;46.80
24207;DHT22;12351;52.284;9.160;2022-07-17T15:08:03;28.90;47.10
24207;DHT22;12351;52.284;9.160;2022-07-17T15:10:40;29.10;46.30
24207;DHT22;12351;52.284;9.160;2022-07-17T15:13:15;29.10;47.20
24207;DHT22;12351;52.284;9.160;2022-07-17T15:15:49;28.40;44.70
24207;DHT22;12351;52.284;9.160;2022-07-17T15:18:25;28.40;48.50
24207;DHT22;12351;52.284;9.160;2022-07-17T15:20:59;28.90;48.90
24207;DHT22;12351;52.284;9.160;2022-07-17T15:23:33;29.20;47.00
24207;DHT22;12351;52.284;9.160;2022-07-17T15:26:09;29.10;44.90
24207;DHT22;12351;52.284;9.160;2022-07-17T15:28:42;29.10;45.30
24207;DHT22;12351;52.284;9.160;2022-07-17T15:31:11;29.10;45.30
24207;DHT22;12351;52.284;9.160;2022-07-17T15:33:40;28.90;46.70
24207;DHT22;12351;52.284;9.160;2022-07-17T15:36:10;29.00;47.80
24207;DHT22;12351;52.284;9.160;2022-07-17T15:38:39;29.00;46.80
24207;DHT22;12351;52.284;9.160;2022-07-17T15:41:09;28.90;47.10
24207;DHT22;12351;52.284;9.160;2022-07-17T15:43:38;28.20;47.20
24207;DHT22;12351;52.284;9.160;2022-07-17T15:46:07;28.50;47.30
24207;DHT22;12351;52.284;9.160;2022-07-17T15:48:36;28.50;47.60
24207;DHT22;12351;52.284;9.160;2022-07-17T15:51:05;28.60;48.30
24207;DHT22;12351;52.284;9.160;2022-07-17T15:53:34;28.10;47.50
24207;DHT22;12351;52.284;9.160;2022-07-17T15:56:03;28.30;48.20
24207;DHT22;12351;52.284;9.160;2022-07-17T15:58:32;28.30;47.00
24207;DHT22;12351;52.284;9.160;2022-07-17T16:01:01;27.90;47.10
24207;DHT22;12351;52.284;9.160;2022-07-17T16:03:30;27.90;48.50
24207;DHT22;12351;52.284;9.160;2022-07-17T16:05:59;28.50;50.40
24207;DHT22;12351;52.284;9.160;2022-07-17T16:08:28;28.60;48.50
24207;DHT22;12351;52.284;9.160;2022-07-17T16:10:57;28.20;46.80
24207;DHT22;12351;52.284;9.160;2022-07-17T16:13:26;27.80;47.20
24207;DHT22;12351;52.284;9.160;2022-07-17T16:15:55;27.30;47.30
24207;DHT22;12351;52.284;9.160;2022-07-17T16:18:24;27.90;48.30
24207;DHT22;12351;52.284;9.160;2022-07-17T16:20:53;28.40;47.20
24207;DHT22;12351;52.284;9.160;2022-07-17T16:23:22;28.50;47.90
24207;DHT22;12351;52.284;9.160;2022-07-17T16:25:51;28.10;47.30
24207;DHT22;12351;52.284;9.160;2022-07-17T16:28:20;28.40;47.30
24207;DHT22;12351;52.284;9.160;2022-07-17T16:30:48;28.50;47.30
24207;DHT22;12351;52.284;9.160;2022-07-17T16:33:17;28.30;46.40
24207;DHT22;12351;52.284;9.160;2022-07-17T16:35:46;28.30;48.00
24207;DHT22;12351;52.284;9.160;2022-07-17T16:38:15;28.60;48.20